sensor_id;sensor_type;location;lat;lon;timestamp;pressure;altitude;pressure_sealevel;temperature;humidity
26823;BME280;14852;51.910;8.878;2024-02-28T00:00:31;100077.06;;;2.03;60.15
26823;BME280;14852;51.910;8.878;2024-02-28T00:02:56;100076.25;;;1.99;60.27
26823;BME280;14852;51.910;8.878;2024-02-28T00:05:22;100078.91;;;1.92;60.48
26823;BME280;14852;51.910;8.878;2024-02-28T00:07:48;100082.38;;;1.88;60.21
26823;BME280;14852;51.910;8.878;2024-02-28T00:10:14;100079.81;;;1.88;60.52
26823;BME280;14852;51.910;8.878;2024-02-28T00:12:40;100087.47;;;1.89;60.45
26823;BME280;14852;51.910;8.878;2024-02-28T00:15:06;100084.94;;;1.88;60.31
26823;BME280;14852;51.910;8.878;2024-02-28T00:17:39;100082.47;;;1.80;60.43
26823;BME280;14852;51.910;8.878;2024-02-28T00:20:07;100085.91;;;1.76;60.24
26823;BME280;14852;51.910;8.878;2024-02-28T00:22:34;100087.66;;;1.74;60.42
26823;BME280;14852;51.910;8.878;2024-02-28T00:25:00;100080.84;;;1.73;60.36
26823;BME280;14852;51.910;8.878;2024-02-28T00:27:26;100079.19;;;1.69;60.41
26823;BME280;14852;51.910;8.878;2024-02-28T00:29:52;100079.28;;;1.60;60.45
26823;BME280;14852;51.910;8.878;2024-02-28T00:32:18;100087.84;;;1.56;60.76
26823;BME280;14852;51.910;8.878;2024-02-28T00:34:44;100087.00;;;1.57;60.61
26823;BME280;14852;51.910;8.878;2024-02-28T00:37:09;100091.25;;;1.59;60.74
26823;BME280;14852;51.910;8.878;2024-02-28T00:39:35;100086.13;;;1.61;60.68
26823;BME280;14852;51.910;8.878;2024-02-28T00:42:01;100089.47;;;1.63;60.64
26823;BME280;14852;51.910;8.878;2024-02-28T00:44:27;100083.47;;;1.65;60.60
26823;BME280;14852;51.910;8.878;2024-02-28T00:46:52;100090.31;;;1.65;60.25
26823;BME280;14852;51.910;8.878;2024-02-28T00:49:18;100086.13;;;1.58;60.57
26823;BME280;14852;51.910;8.878;2024-02-28T00:51:46;100094.72;;;1.51;60.37
26823;BME280;14852;51.910;8.878;2024-02-28T00:54:11;100093.94;;;1.44;60.58
26823;BME280;14852;51.910;8.878;2024-02-28T00:56:37;100090.63;;;1.37;60.51
26823;BME280;14852;51.910;8.878;2024-02-28T00:59:03;100088.09;;;1.33;60.67
26823;BME280;14852;51.910;8.878;2024-02-28T01:01:31;100094.06;;;1.32;60.87
26823;BME280;14852;51.910;8.878;2024-02-28T01:03:57;100100.03;;;1.35;60.99
26823;BME280;14852;51.910;8.878;2024-02-28T01:06:22;100100.03;;;1.35;60.69
26823;BME280;14852;51.910;8.878;2024-02-28T01:08:48;100100.03;;;1.32;60.79
26823;BME280;14852;51.910;8.878;2024-02-28T01:11:14;100094.09;;;1.30;60.93
26823;BME280;14852;51.910;8.878;2024-02-28T01:13:40;100100.13;;;1.25;60.84
26823;BME280;14852;51.910;8.878;2024-02-28T01:16:05;100103.53;;;1.24;60.82
26823;BME280;14852;51.910;8.878;2024-02-28T01:18:31;100094.16;;;1.26;60.82
26823;BME280;14852;51.910;8.878;2024-02-28T01:20:57;100094.16;;;1.24;61.05
26823;BME280;14852;51.910;8.878;2024-02-28T01:23:23;100092.44;;;1.25;60.75
26823;BME280;14852;51.910;8.878;2024-02-28T01:25:49;100093.28;;;1.27;60.94
26823;BME280;14852;51.910;8.878;2024-02-28T01:28:15;100094.09;;;1.27;60.98
26823;BME280;14852;51.910;8.878;2024-02-28T01:30:40;100100.06;;;1.29;60.57
26823;BME280;14852;51.910;8.878;2024-02-28T01:33:06;100098.34;;;1.33;60.74
26823;BME280;14852;51.910;8.878;2024-02-28T01:35:32;100098.31;;;1.37;60.51
26823;BME280;14852;51.910;8.878;2024-02-28T01:37:57;100106.75;;;1.44;60.77
26823;BME280;14852;51.910;8.878;2024-02-28T01:40:28;100095.66;;;1.43;60.84
26823;BME280;14852;51.910;8.878;2024-02-28T01:42:53;100101.72;;;1.36;60.70
26823;BME280;14852;51.910;8.878;2024-02-28T01:45:19;100097.50;;;1.31;60.72
26823;BME280;14852;51.910;8.878;2024-02-28T01:47:45;100093.28;;;1.27;60.83
26823;BME280;14852;51.910;8.878;2024-02-28T01:50:11;100091.59;;;1.24;60.96
26823;BME280;14852;51.910;8.878;2024-02-28T01:52:38;100093.31;;;1.21;61.08
26823;BME280;14852;51.910;8.878;2024-02-28T01:55:05;100096.75;;;1.18;60.97
26823;BME280;14852;51.910;8.878;2024-02-28T01:57:33;100095.03;;;1.20;60.96
26823;BME280;14852;51.910;8.878;2024-02-28T01:59:59;100092.44;;;1.25;60.95
26823;BME280;14852;51.910;8.878;2024-02-28T02:02:25;100100.94;;;1.28;60.88
26823;BME280;14852;51.910;8.878;2024-02-28T02:04:51;100088.16;;;1.27;60.55
26823;BME280;14852;51.910;8.878;2024-02-28T02:07:19;100092.41;;;1.28;60.61
26823;BME280;14852;51.910;8.878;2024-02-28T02:09:45;100082.19;;;1.26;60.77
26823;BME280;14852;51.910;8.878;2024-02-28T02:12:12;100080.53;;;1.22;60.97
26823;BME280;14852;51.910;8.878;2024-02-28T02:14:38;100078.00;;;1.16;60.79
26823;BME280;14852;51.910;8.878;2024-02-28T02:17:03;100075.50;;;1.13;60.91
26823;BME280;14852;51.910;8.878;2024-02-28T02:19:29;100083.19;;;1.10;61.08
26823;BME280;14852;51.910;8.878;2024-02-28T02:21:58;100085.75;;;1.12;60.94
26823;BME280;14852;51.910;8.878;2024-02-28T02:24:25;100086.56;;;1.15;61.03
26823;BME280;14852;51.910;8.878;2024-02-28T02:27:02;100087.38;;;1.17;60.82
26823;BME280;14852;51.910;8.878;2024-02-28T02:29:30;100091.66;;;1.17;60.84
26823;BME280;14852;51.910;8.878;2024-02-28T02:31:56;100094.25;;;1.15;61.09
26823;BME280;14852;51.910;8.878;2024-02-28T02:34:22;100092.56;;;1.13;60.86
26823;BME280;14852;51.910;8.878;2024-02-28T02:36:48;100088.31;;;1.10;61.12
26823;BME280;14852;51.910;8.878;2024-02-28T02:39:13;100093.44;;;1.08;61.14
26823;BME280;14852;51.910;8.878;2024-02-28T02:41:39;100087.47;;;1.05;61.54
26823;BME280;14852;51.910;8.878;2024-02-28T02:44:07;100079.81;;;1.05;61.56
26823;BME280;14852;51.910;8.878;2024-02-28T02:46:33;100078.09;;;1.05;61.39
26823;BME280;14852;51.910;8.878;2024-02-28T02:48:59;100080.66;;;1.05;61.52
26823;BME280;14852;51.910;8.878;2024-02-28T02:51:24;100089.22;;;1.03;61.38
26823;BME280;14852;51.910;8.878;2024-02-28T02:53:51;100089.19;;;1.04;61.40
26823;BME280;14852;51.910;8.878;2024-02-28T02:56:17;100090.03;;;1.05;61.62
26823;BME280;14852;51.910;8.878;2024-02-28T02:58:43;100080.72;;;1.02;61.78
26823;BME280;14852;51.910;8.878;2024-02-28T03:01:08;100079.03;;;1.00;61.85
26823;BME280;14852;51.910;8.878;2024-02-28T03:03:35;100087.53;;;1.00;61.86
26823;BME280;14852;51.910;8.878;2024-02-28T03:06:04;100080.72;;;1.02;61.95
26823;BME280;14852;51.910;8.878;2024-02-28T03:08:30;100076.44;;;1.01;62.05
26823;BME280;14852;51.910;8.878;2024-02-28T03:10:56;100078.16;;;1.01;61.82
26823;BME280;14852;51.910;8.878;2024-02-28T03:13:22;100087.47;;;1.05;62.29
26823;BME280;14852;51.910;8.878;2024-02-28T03:15:48;100095.16;;;1.05;62.13
26823;BME280;14852;51.910;8.878;2024-02-28T03:18:14;100085.78;;;1.04;61.98
26823;BME280;14852;51.910;8.878;2024-02-28T03:20:39;100096.91;;;1.03;62.04
26823;BME280;14852;51.910;8.878;2024-02-28T03:23:05;100095.22;;;1.02;62.03
26823;BME280;14852;51.910;8.878;2024-02-28T03:25:34;100105.44;;;1.00;62.00
26823;BME280;14852;51.910;8.878;2024-02-28T03:28:00;100102.91;;;0.99;62.41
26823;BME280;14852;51.910;8.878;2024-02-28T03:30:27;100100.34;;;0.96;62.19
26823;BME280;14852;51.910;8.878;2024-02-28T03:32:52;100111.47;;;0.93;62.31
26823;BME280;14852;51.910;8.878;2024-02-28T03:35:18;100113.22;;;0.91;62.31
26823;BME280;14852;51.910;8.878;2024-02-28T03:37:44;100113.16;;;0.94;62.19
26823;BME280;14852;51.910;8.878;2024-02-28T03:40:10;100109.72;;;0.97;62.50
26823;BME280;14852;51.910;8.878;2024-02-28T03:42:36;100114.00;;;0.98;62.48
26823;BME280;14852;51.910;8.878;2024-02-28T03:45:02;100110.56;;;0.99;62.27
26823;BME280;14852;51.910;8.878;2024-02-28T03:47:28;100103.75;;;0.98;62.28
26823;BME280;14852;51.910;8.878;2024-02-28T03:49:54;100104.63;;;0.95;62.48
26823;BME280;14852;51.910;8.878;2024-02-28T03:52:23;100110.66;;;0.91;62.58
26823;BME280;14852;51.910;8.878;2024-02-28T03:54:49;100114.06;;;0.90;62.46
26823;BME280;14852;51.910;8.878;2024-02-28T03:57:14;100114.09;;;0.86;62.45
26823;BME280;14852;51.910;8.878;2024-02-28T03:59:41;100110.72;;;0.81;62.55
26823;BME280;14852;51.910;8.878;2024-02-28T04:02:07;100115.00;;;0.77;62.49
26823;BME280;14852;51.910;8.878;2024-02-28T04:04:32;100109.91;;;0.72;62.75
26823;BME280;14852;51.910;8.878;2024-02-28T04:06:59;100118.44;;;0.71;62.56
26823;BME280;14852;51.910;8.878;2024-02-28T04:09:27;100120.13;;;0.76;62.56
26823;BME280;14852;51.910;8.878;2024-02-28T04:11:54;100110.72;;;0.81;62.45
26823;BME280;14852;51.910;8.878;2024-02-28T04:14:19;100114.09;;;0.84;62.64
26823;BME280;14852;51.910;8.878;2024-02-28T04:16:45;100118.34;;;0.87;62.32
26823;BME280;14852;51.910;8.878;2024-02-28T04:19:11;100126.00;;;0.90;62.59
26823;BME280;14852;51.910;8.878;2024-02-28T04:21:37;100117.47;;;0.91;62.63
26823;BME280;14852;51.910;8.878;2024-02-28T04:24:05;100126.00;;;0.90;62.41
26823;BME280;14852;51.910;8.878;2024-02-28T04:26:31;100122.59;;;0.91;62.77
26823;BME280;14852;51.910;8.878;2024-02-28T04:28:57;100131.06;;;0.93;62.61
26823;BME280;14852;51.910;8.878;2024-02-28T04:31:22;100125.97;;;0.93;62.82
26823;BME280;14852;51.910;8.878;2024-02-28T04:33:48;100131.06;;;0.93;62.67
26823;BME280;14852;51.910;8.878;2024-02-28T04:36:14;100142.16;;;0.93;62.89
26823;BME280;14852;51.910;8.878;2024-02-28T04:38:41;100148.97;;;0.93;62.78
26823;BME280;14852;51.910;8.878;2024-02-28T04:41:07;100152.44;;;0.92;62.70
26823;BME280;14852;51.910;8.878;2024-02-28T04:43:33;100144.75;;;0.90;62.58
26823;BME280;14852;51.910;8.878;2024-02-28T04:45:59;100152.44;;;0.90;62.71
26823;BME280;14852;51.910;8.878;2024-02-28T04:48:24;100153.25;;;0.94;62.99
26823;BME280;14852;51.910;8.878;2024-02-28T04:50:51;100154.94;;;0.96;62.64
26823;BME280;14852;51.910;8.878;2024-02-28T04:53:17;100164.31;;;0.97;62.57
26823;BME280;14852;51.910;8.878;2024-02-28T04:55:42;100171.13;;;0.97;62.65
26823;BME280;14852;51.910;8.878;2024-02-28T04:58:08;100180.53;;;0.96;62.75
26823;BME280;14852;51.910;8.878;2024-02-28T05:00:34;100181.38;;;0.97;62.62
26823;BME280;14852;51.910;8.878;2024-02-28T05:03:00;100180.53;;;0.96;62.66
26823;BME280;14852;51.910;8.878;2024-02-28T05:05:26;100183.09;;;0.96;62.53
26823;BME280;14852;51.910;8.878;2024-02-28T05:07:51;100193.31;;;0.98;62.53
26823;BME280;14852;51.910;8.878;2024-02-28T05:10:17;100190.75;;;0.98;62.48
26823;BME280;14852;51.910;8.878;2024-02-28T05:12:43;100194.16;;;0.98;62.46
26823;BME280;14852;51.910;8.878;2024-02-28T05:15:09;100187.34;;;0.94;62.36
26823;BME280;14852;51.910;8.878;2024-02-28T05:17:35;100195.94;;;0.90;62.22
26823;BME280;14852;51.910;8.878;2024-02-28T05:20:00;100193.38;;;0.89;62.41
26823;BME280;14852;51.910;8.878;2024-02-28T05:22:26;100196.78;;;0.89;62.53
26823;BME280;14852;51.910;8.878;2024-02-28T05:24:52;100199.34;;;0.88;62.54
26823;BME280;14852;51.910;8.878;2024-02-28T05:27:19;100204.47;;;0.88;62.17
26823;BME280;14852;51.910;8.878;2024-02-28T05:29:45;100204.47;;;0.85;62.58
26823;BME280;14852;51.910;8.878;2024-02-28T05:32:10;100205.34;;;0.82;62.44
26823;BME280;14852;51.910;8.878;2024-02-28T05:34:37;100210.50;;;0.78;62.29
26823;BME280;14852;51.910;8.878;2024-02-28T05:37:03;100217.34;;;0.71;62.56
26823;BME280;14852;51.910;8.878;2024-02-28T05:39:28;100224.19;;;0.66;62.62
26823;BME280;14852;51.910;8.878;2024-02-28T05:41:55;100225.91;;;0.62;62.48
26823;BME280;14852;51.910;8.878;2024-02-28T05:44:20;100233.56;;;0.61;62.59
26823;BME280;14852;51.910;8.878;2024-02-28T05:46:46;100232.72;;;0.63;62.66
26823;BME280;14852;51.910;8.878;2024-02-28T05:49:12;100235.28;;;0.66;62.37
26823;BME280;14852;51.910;8.878;2024-02-28T05:51:38;100239.50;;;0.70;62.63
26823;BME280;14852;51.910;8.878;2024-02-28T05:54:04;100240.31;;;0.80;62.14
26823;BME280;14852;51.910;8.878;2024-02-28T05:56:29;100230.03;;;0.89;62.11
26823;BME280;14852;51.910;8.878;2024-02-28T05:58:55;100236.81;;;0.98;62.03
26823;BME280;14852;51.910;8.878;2024-02-28T06:01:21;100238.44;;;1.06;61.83
26823;BME280;14852;51.910;8.878;2024-02-28T06:03:50;100243.53;;;1.14;61.57
26823;BME280;14852;51.910;8.878;2024-02-28T06:06:17;100246.03;;;1.20;61.77
26823;BME280;14852;51.910;8.878;2024-02-28T06:08:43;100250.25;;;1.27;61.29
26823;BME280;14852;51.910;8.878;2024-02-28T06:11:09;100251.94;;;1.34;61.45
26823;BME280;14852;51.910;8.878;2024-02-28T06:13:36;100247.59;;;1.39;61.30
26823;BME280;14852;51.910;8.878;2024-02-28T06:16:02;100258.69;;;1.41;61.02
26823;BME280;14852;51.910;8.878;2024-02-28T06:18:29;100250.13;;;1.45;61.07
26823;BME280;14852;51.910;8.878;2024-02-28T06:20:59;100254.41;;;1.47;61.30
26823;BME280;14852;51.910;8.878;2024-02-28T06:23:25;100251.81;;;1.50;61.44
26823;BME280;14852;51.910;8.878;2024-02-28T06:25:52;100255.19;;;1.50;61.33
26823;BME280;14852;51.910;8.878;2024-02-28T06:28:18;100261.19;;;1.51;61.22
26823;BME280;14852;51.910;8.878;2024-02-28T06:30:44;100260.31;;;1.53;61.34
26823;BME280;14852;51.910;8.878;2024-02-28T06:33:13;100262.88;;;1.53;61.47
26823;BME280;14852;51.910;8.878;2024-02-28T06:35:40;100280.78;;;1.56;61.60
26823;BME280;14852;51.910;8.878;2024-02-28T06:38:06;100280.72;;;1.64;61.59
26823;BME280;14852;51.910;8.878;2024-02-28T06:40:33;100276.41;;;1.72;61.67
26823;BME280;14852;51.910;8.878;2024-02-28T06:43:00;100274.63;;;1.78;61.38
26823;BME280;14852;51.910;8.878;2024-02-28T06:45:25;100285.69;;;1.84;61.60
26823;BME280;14852;51.910;8.878;2024-02-28T06:47:51;100278.81;;;1.89;61.54
26823;BME280;14852;51.910;8.878;2024-02-28T06:50:17;100281.31;;;1.95;61.44
26823;BME280;14852;51.910;8.878;2024-02-28T06:52:43;100281.22;;;2.05;61.61
26823;BME280;14852;51.910;8.878;2024-02-28T06:55:09;100278.56;;;2.13;61.41
26823;BME280;14852;51.910;8.878;2024-02-28T06:57:42;100286.16;;;2.24;61.28
26823;BME280;14852;51.910;8.878;2024-02-28T07:00:10;100281.78;;;2.32;61.13
26823;BME280;14852;51.910;8.878;2024-02-28T07:02:40;100278.31;;;2.39;61.09
26823;BME280;14852;51.910;8.878;2024-02-28T07:05:06;100281.63;;;2.48;61.22
26823;BME280;14852;51.910;8.878;2024-02-28T07:07:36;100282.31;;;2.64;60.86
26823;BME280;14852;51.910;8.878;2024-02-28T07:10:03;100280.25;;;2.90;60.99
26823;BME280;14852;51.910;8.878;2024-02-28T07:12:33;100270.47;;;3.18;60.27
26823;BME280;14852;51.910;8.878;2024-02-28T07:14:58;100274.44;;;3.39;59.83
26823;BME280;14852;51.910;8.878;2024-02-28T07:17:24;100273.22;;;3.63;59.62
26823;BME280;14852;51.910;8.878;2024-02-28T07:19:50;100261.81;;;3.79;59.37
26823;BME280;14852;51.910;8.878;2024-02-28T07:22:17;100270.25;;;3.87;59.21
26823;BME280;14852;51.910;8.878;2024-02-28T07:24:43;100266.75;;;3.91;59.75
26823;BME280;14852;51.910;8.878;2024-02-28T07:27:09;100273.41;;;4.03;59.67
26823;BME280;14852;51.910;8.878;2024-02-28T07:29:37;100269.66;;;4.19;59.50
26823;BME280;14852;51.910;8.878;2024-02-28T07:32:03;100272.75;;;4.38;59.33
26823;BME280;14852;51.910;8.878;2024-02-28T07:34:29;100275.91;;;4.51;59.06
26823;BME280;14852;51.910;8.878;2024-02-28T07:36:54;100276.53;;;4.63;59.14
26823;BME280;14852;51.910;8.878;2024-02-28T07:39:20;100285.72;;;4.75;59.22
26823;BME280;14852;51.910;8.878;2024-02-28T07:41:46;100285.50;;;4.86;59.37
26823;BME280;14852;51.910;8.878;2024-02-28T07:44:12;100290.50;;;4.95;59.71
26823;BME280;14852;51.910;8.878;2024-02-28T07:46:41;100283.44;;;5.03;59.57
26823;BME280;14852;51.910;8.878;2024-02-28T07:49:07;100280.78;;;5.07;59.50
26823;BME280;14852;51.910;8.878;2024-02-28T07:51:33;100290.91;;;5.15;59.88
26823;BME280;14852;51.910;8.878;2024-02-28T07:53:59;100290.84;;;5.18;60.16
26823;BME280;14852;51.910;8.878;2024-02-28T07:56:25;100294.31;;;5.17;60.02
26823;BME280;14852;51.910;8.878;2024-02-28T07:58:50;100301.94;;;5.20;60.34
26823;BME280;14852;51.910;8.878;2024-02-28T08:01:16;100301.88;;;5.23;60.08
26823;BME280;14852;51.910;8.878;2024-02-28T08:03:43;100304.22;;;5.34;60.31
26823;BME280;14852;51.910;8.878;2024-02-28T08:06:09;100307.16;;;5.56;60.09
26823;BME280;14852;51.910;8.878;2024-02-28T08:08:35;100305.06;;;5.73;60.13
26823;BME280;14852;51.910;8.878;2024-02-28T08:11:02;100310.88;;;5.79;60.06
26823;BME280;14852;51.910;8.878;2024-02-28T08:13:29;100314.06;;;5.92;60.07
26823;BME280;14852;51.910;8.878;2024-02-28T08:15:55;100309.63;;;5.99;60.31
26823;BME280;14852;51.910;8.878;2024-02-28T08:18:21;100312.09;;;6.02;60.54
26823;BME280;14852;51.910;8.878;2024-02-28T08:20:47;100310.31;;;6.04;60.47
26823;BME280;14852;51.910;8.878;2024-02-28T08:23:13;100306.91;;;6.03;60.53
26823;BME280;14852;51.910;8.878;2024-02-28T08:25:38;100309.63;;;5.99;60.78
26823;BME280;14852;51.910;8.878;2024-02-28T08:28:04;100312.19;;;5.99;61.15
26823;BME280;14852;51.910;8.878;2024-02-28T08:30:30;100308.78;;;5.98;61.46
26823;BME280;14852;51.910;8.878;2024-02-28T08:32:56;100317.34;;;5.99;61.43
26823;BME280;14852;51.910;8.878;2024-02-28T08:35:23;100319.94;;;5.99;61.48
26823;BME280;14852;51.910;8.878;2024-02-28T08:37:49;100319.94;;;5.99;61.65
26823;BME280;14852;51.910;8.878;2024-02-28T08:40:15;100316.50;;;5.98;61.50
26823;BME280;14852;51.910;8.878;2024-02-28T08:42:41;100312.09;;;6.02;61.87
26823;BME280;14852;51.910;8.878;2024-02-28T08:45:08;100319.66;;;6.09;61.89
26823;BME280;14852;51.910;8.878;2024-02-28T08:47:34;100336.56;;;6.21;61.47
26823;BME280;14852;51.910;8.878;2024-02-28T08:50:00;100334.63;;;6.29;61.43
26823;BME280;14852;51.910;8.878;2024-02-28T08:52:25;100343.94;;;6.35;61.26
26823;BME280;14852;51.910;8.878;2024-02-28T08:54:51;100343.91;;;6.36;61.66
26823;BME280;14852;51.910;8.878;2024-02-28T08:57:19;100360.19;;;6.38;61.43
26823;BME280;14852;51.910;8.878;2024-02-28T08:59:48;100350.72;;;6.39;61.48
26823;BME280;14852;51.910;8.878;2024-02-28T09:02:13;100366.16;;;6.40;61.52
26823;BME280;14852;51.910;8.878;2024-02-28T09:04:39;100366.22;;;6.39;61.37
26823;BME280;14852;51.910;8.878;2024-02-28T09:07:05;100362.00;;;6.35;61.79
26823;BME280;14852;51.910;8.878;2024-02-28T09:09:31;100356.75;;;6.38;61.68
26823;BME280;14852;51.910;8.878;2024-02-28T09:12:00;100356.69;;;6.41;61.71
26823;BME280;14852;51.910;8.878;2024-02-28T09:14:28;100351.28;;;6.50;61.78
26823;BME280;14852;51.910;8.878;2024-02-28T09:16:54;100358.06;;;6.54;61.63
26823;BME280;14852;51.910;8.878;2024-02-28T09:19:26;100349.34;;;6.58;61.61
26823;BME280;14852;51.910;8.878;2024-02-28T09:21:52;100351.22;;;6.53;61.78
26823;BME280;14852;51.910;8.878;2024-02-28T09:24:17;100351.25;;;6.51;61.82
26823;BME280;14852;51.910;8.878;2024-02-28T09:26:43;100351.81;;;6.63;61.99
26823;BME280;14852;51.910;8.878;2024-02-28T09:29:09;100352.44;;;6.71;61.65
26823;BME280;14852;51.910;8.878;2024-02-28T09:31:34;100348.13;;;6.71;61.16
26823;BME280;14852;51.910;8.878;2024-02-28T09:34:00;100342.97;;;6.71;61.28
26823;BME280;14852;51.910;8.878;2024-02-28T09:36:29;100341.25;;;6.70;61.45
26823;BME280;14852;51.910;8.878;2024-02-28T09:38:55;100357.66;;;6.69;61.52
26823;BME280;14852;51.910;8.878;2024-02-28T09:41:22;100355.75;;;6.76;61.66
26823;BME280;14852;51.910;8.878;2024-02-28T09:43:52;100358.09;;;6.85;61.77
26823;BME280;14852;51.910;8.878;2024-02-28T09:46:18;100357.66;;;7.00;61.59
26823;BME280;14852;51.910;8.878;2024-02-28T09:48:46;100347.09;;;7.08;61.39
26823;BME280;14852;51.910;8.878;2024-02-28T09:51:15;100357.22;;;7.15;61.26
26823;BME280;14852;51.910;8.878;2024-02-28T09:53:41;100361.94;;;7.31;61.23
26823;BME280;14852;51.910;8.878;2024-02-28T09:56:07;100348.53;;;7.47;61.34
26823;BME280;14852;51.910;8.878;2024-02-28T09:58:33;100352.19;;;7.68;61.15
26823;BME280;14852;51.910;8.878;2024-02-28T10:01:02;100341.84;;;7.96;60.97
26823;BME280;14852;51.910;8.878;2024-02-28T10:03:31;100348.09;;;8.15;60.42
26823;BME280;14852;51.910;8.878;2024-02-28T10:05:58;100353.63;;;8.56;60.03
26823;BME280;14852;51.910;8.878;2024-02-28T10:08:23;100346.38;;;8.90;59.83
26823;BME280;14852;51.910;8.878;2024-02-28T10:10:50;100350.38;;;9.22;59.18
26823;BME280;14852;51.910;8.878;2024-02-28T10:13:20;100353.56;;;9.52;59.54
26823;BME280;14852;51.910;8.878;2024-02-28T10:15:49;100350.84;;;9.77;59.68
26823;BME280;14852;51.910;8.878;2024-02-28T10:18:15;100353.50;;;9.97;59.31
26823;BME280;14852;51.910;8.878;2024-02-28T10:20:42;100361.63;;;10.10;59.09
26823;BME280;14852;51.910;8.878;2024-02-28T10:23:08;100349.66;;;10.06;59.21
26823;BME280;14852;51.910;8.878;2024-02-28T10:25:45;100362.84;;;10.01;59.41
26823;BME280;14852;51.910;8.878;2024-02-28T10:28:12;100367.38;;;9.96;59.80
26823;BME280;14852;51.910;8.878;2024-02-28T10:30:43;100370.38;;;10.07;59.85
26823;BME280;14852;51.910;8.878;2024-02-28T10:33:13;100362.00;;;10.23;59.66
26823;BME280;14852;51.910;8.878;2024-02-28T10:35:42;100361.69;;;10.30;58.92
26823;BME280;14852;51.910;8.878;2024-02-28T10:38:13;100361.50;;;10.35;58.77
26823;BME280;14852;51.910;8.878;2024-02-28T10:40:40;100354.16;;;10.44;59.11
26823;BME280;14852;51.910;8.878;2024-02-28T10:43:10;100348.19;;;10.42;58.28
26823;BME280;14852;51.910;8.878;2024-02-28T10:45:37;100356.19;;;10.38;59.06
26823;BME280;14852;51.910;8.878;2024-02-28T10:48:07;100342.94;;;10.44;59.14
26823;BME280;14852;51.910;8.878;2024-02-28T10:50:35;100348.25;;;10.41;58.82
26823;BME280;14852;51.910;8.878;2024-02-28T10:53:03;100353.19;;;10.27;58.83
26823;BME280;14852;51.910;8.878;2024-02-28T10:55:40;100349.59;;;10.29;59.11
26823;BME280;14852;51.910;8.878;2024-02-28T10:58:08;100357.22;;;10.34;59.14
26823;BME280;14852;51.910;8.878;2024-02-28T11:00:42;100362.88;;;10.43;59.16
26823;BME280;14852;51.910;8.878;2024-02-28T11:03:16;100361.81;;;10.68;59.17
26823;BME280;14852;51.910;8.878;2024-02-28T11:05:44;100359.97;;;10.90;58.81
26823;BME280;14852;51.910;8.878;2024-02-28T11:08:24;100350.44;;;11.09;58.84
26823;BME280;14852;51.910;8.878;2024-02-28T11:10:58;100352.09;;;11.31;59.12
26823;BME280;14852;51.910;8.878;2024-02-28T11:13:26;100347.00;;;11.28;58.61
26823;BME280;14852;51.910;8.878;2024-02-28T11:15:53;100345.94;;;11.32;59.36
26823;BME280;14852;51.910;8.878;2024-02-28T11:18:24;100343.47;;;11.47;59.30
26823;BME280;14852;51.910;8.878;2024-02-28T11:20:50;100342.59;;;11.66;58.67
26823;BME280;14852;51.910;8.878;2024-02-28T11:23:20;100338.78;;;11.91;58.67
26823;BME280;14852;51.910;8.878;2024-02-28T11:25:45;100339.41;;;12.14;58.28
26823;BME280;14852;51.910;8.878;2024-02-28T11:28:11;100342.25;;;12.26;58.38
26823;BME280;14852;51.910;8.878;2024-02-28T11:30:37;100339.66;;;12.44;57.85
26823;BME280;14852;51.910;8.878;2024-02-28T11:33:03;100347.00;;;12.53;57.47
26823;BME280;14852;51.910;8.878;2024-02-28T11:35:29;100345.94;;;12.57;57.72
26823;BME280;14852;51.910;8.878;2024-02-28T11:37:55;100346.25;;;12.68;57.94
26823;BME280;14852;51.910;8.878;2024-02-28T11:40:27;100351.06;;;12.76;57.71
26823;BME280;14852;51.910;8.878;2024-02-28T11:42:56;100351.97;;;12.75;57.89
26823;BME280;14852;51.910;8.878;2024-02-28T11:45:22;100356.66;;;12.68;57.81
26823;BME280;14852;51.910;8.878;2024-02-28T11:47:48;100356.06;;;12.63;57.73
26823;BME280;14852;51.910;8.878;2024-02-28T11:50:14;100357.38;;;12.54;57.53
26823;BME280;14852;51.910;8.878;2024-02-28T11:52:44;100350.31;;;12.39;57.33
26823;BME280;14852;51.910;8.878;2024-02-28T11:55:11;100345.88;;;12.24;57.07
26823;BME280;14852;51.910;8.878;2024-02-28T11:57:37;100358.28;;;12.19;57.38
26823;BME280;14852;51.910;8.878;2024-02-28T12:00:08;100358.44;;;11.99;56.94
26823;BME280;14852;51.910;8.878;2024-02-28T12:02:36;100349.78;;;11.98;57.46
26823;BME280;14852;51.910;8.878;2024-02-28T12:05:03;100355.97;;;12.13;56.75
26823;BME280;14852;51.910;8.878;2024-02-28T12:07:32;100339.06;;;12.21;56.50
26823;BME280;14852;51.910;8.878;2024-02-28T12:09:59;100344.09;;;12.24;56.10
26823;BME280;14852;51.910;8.878;2024-02-28T12:12:24;100343.19;;;12.25;55.93
26823;BME280;14852;51.910;8.878;2024-02-28T12:14:50;100339.06;;;12.21;55.95
26823;BME280;14852;51.910;8.878;2024-02-28T12:17:17;100333.94;;;12.20;55.87
26823;BME280;14852;51.910;8.878;2024-02-28T12:19:43;100343.03;;;12.11;55.11
26823;BME280;14852;51.910;8.878;2024-02-28T12:22:09;100340.47;;;11.92;55.05
26823;BME280;14852;51.910;8.878;2024-02-28T12:24:36;100333.53;;;11.74;55.17
26823;BME280;14852;51.910;8.878;2024-02-28T12:27:03;100336.09;;;11.76;55.31
26823;BME280;14852;51.910;8.878;2024-02-28T12:29:29;100332.69;;;11.74;55.23
26823;BME280;14852;51.910;8.878;2024-02-28T12:31:54;100328.59;;;11.68;55.11
26823;BME280;14852;51.910;8.878;2024-02-28T12:34:21;100325.31;;;11.65;55.32
26823;BME280;14852;51.910;8.878;2024-02-28T12:36:47;100313.56;;;11.56;54.97
26823;BME280;14852;51.910;8.878;2024-02-28T12:39:12;100312.38;;;11.44;55.43
26823;BME280;14852;51.910;8.878;2024-02-28T12:41:39;100306.78;;;11.35;55.68
26823;BME280;14852;51.910;8.878;2024-02-28T12:44:08;100308.84;;;11.28;55.51
26823;BME280;14852;51.910;8.878;2024-02-28T12:46:35;100304.63;;;11.25;55.46
26823;BME280;14852;51.910;8.878;2024-02-28T12:49:01;100299.34;;;11.27;55.45
26823;BME280;14852;51.910;8.878;2024-02-28T12:51:44;100294.22;;;11.25;55.43
26823;BME280;14852;51.910;8.878;2024-02-28T12:54:12;100293.28;;;11.27;55.18